sensor_id;sensor_type;location;lat;lon;timestamp;P1;durP1;ratioP1;P2;durP2;ratioP2
33287;SDS011;19657;50.452;30.372;2024-02-23T00:01:57;16.90;;;7.20;;
33287;SDS011;19657;50.452;30.372;2024-02-23T00:04:42;11.00;;;6.40;;
33287;SDS011;19657;50.452;30.372;2024-02-23T00:07:28;15.10;;;7.20;;
33287;SDS011;19657;50.452;30.372;2024-02-23T00:10:14;11.70;;;6.90;;
33287;SDS011;19657;50.452;30.372;2024-02-23T00:12:59;11.90;;;7.00;;
33287;SDS011;19657;50.452;30.372;2024-02-23T00:15:46;11.80;;;6.80;;
33287;SDS011;19657;50.452;30.372;2024-02-23T00:18:32;11.70;;;6.70;;
33287;SDS011;19657;50.452;30.372;2024-02-23T00:21:17;12.30;;;6.70;;
33287;SDS011;19657;50.452;30.372;2024-02-23T00:24:03;13.20;;;6.60;;
33287;SDS011;19657;50.452;30.372;2024-02-23T00:26:49;12.90;;;6.90;;
33287;SDS011;19657;50.452;30.372;2024-02-23T00:29:36;14.30;;;6.90;;
33287;SDS011;19657;50.452;30.372;2024-02-23T00:32:22;11.00;;;6.40;;
33287;SDS011;19657;50.452;30.372;2024-02-23T00:35:08;11.80;;;6.30;;
33287;SDS011;19657;50.452;30.372;2024-02-23T00:37:54;11.80;;;6.80;;
33287;SDS011;19657;50.452;30.372;2024-02-23T00:40:39;12.80;;;7.00;;
33287;SDS011;19657;50.452;30.372;2024-02-23T00:43:25;10.90;;;6.50;;
33287;SDS011;19657;50.452;30.372;2024-02-23T00:46:10;12.30;;;6.00;;
33287;SDS011;19657;50.452;30.372;2024-02-23T00:48:57;11.40;;;6.90;;
33287;SDS011;19657;50.452;30.372;2024-02-23T00:51:43;14.00;;;6.40;;
33287;SDS011;19657;50.452;30.372;2024-02-23T00:54:29;9.70;;;6.40;;
33287;SDS011;19657;50.452;30.372;2024-02-23T00:57:14;14.80;;;7.10;;
33287;SDS011;19657;50.452;30.372;2024-02-23T01:00:01;14.00;;;7.10;;
33287;SDS011;19657;50.452;30.372;2024-02-23T01:02:50;12.50;;;6.70;;
33287;SDS011;19657;50.452;30.372;2024-02-23T01:05:35;11.60;;;6.80;;
33287;SDS011;19657;50.452;30.372;2024-02-23T01:08:23;11.80;;;6.40;;
33287;SDS011;19657;50.452;30.372;2024-02-23T01:11:08;12.80;;;7.10;;
33287;SDS011;19657;50.452;30.372;2024-02-23T01:13:55;11.90;;;7.70;;
33287;SDS011;19657;50.452;30.372;2024-02-23T01:16:40;12.60;;;7.30;;
33287;SDS011;19657;50.452;30.372;2024-02-23T01:19:26;12.50;;;6.90;;
33287;SDS011;19657;50.452;30.372;2024-02-23T01:22:11;11.90;;;7.60;;
33287;SDS011;19657;50.452;30.372;2024-02-23T01:24:57;12.30;;;7.20;;
33287;SDS011;19657;50.452;30.372;2024-02-23T01:27:43;12.60;;;7.10;;
33287;SDS011;19657;50.452;30.372;2024-02-23T01:30:32;10.20;;;6.40;;
33287;SDS011;19657;50.452;30.372;2024-02-23T01:33:18;14.10;;;7.20;;
33287;SDS011;19657;50.452;30.372;2024-02-23T01:36:05;13.80;;;7.10;;
33287;SDS011;19657;50.452;30.372;2024-02-23T01:38:51;11.90;;;7.30;;
33287;SDS011;19657;50.452;30.372;2024-02-23T01:41:36;13.80;;;7.50;;
33287;SDS011;19657;50.452;30.372;2024-02-23T01:44:22;12.80;;;6.80;;
33287;SDS011;19657;50.452;30.372;2024-02-23T01:47:08;13.60;;;7.10;;
33287;SDS011;19657;50.452;30.372;2024-02-23T01:49:53;14.10;;;6.70;;
33287;SDS011;19657;50.452;30.372;2024-02-23T01:52:42;11.30;;;6.60;;
33287;SDS011;19657;50.452;30.372;2024-02-23T01:55:28;11.90;;;6.20;;
33287;SDS011;19657;50.452;30.372;2024-02-23T01:58:16;12.30;;;6.80;;
33287;SDS011;19657;50.452;30.372;2024-02-23T02:01:03;11.50;;;6.90;;
33287;SDS011;19657;50.452;30.372;2024-02-23T02:03:49;12.60;;;6.90;;
33287;SDS011;19657;50.452;30.372;2024-02-23T02:06:35;12.50;;;6.40;;
33287;SDS011;19657;50.452;30.372;2024-02-23T02:09:21;9.80;;;6.30;;
33287;SDS011;19657;50.452;30.372;2024-02-23T02:12:07;11.60;;;6.80;;
33287;SDS011;19657;50.452;30.372;2024-02-23T02:14:53;11.80;;;6.60;;
33287;SDS011;19657;50.452;30.372;2024-02-23T02:17:41;11.80;;;6.50;;
33287;SDS011;19657;50.452;30.372;2024-02-23T02:20:26;14.10;;;7.00;;
33287;SDS011;19657;50.452;30.372;2024-02-23T02:23:16;14.90;;;6.90;;
33287;SDS011;19657;50.452;30.372;2024-02-23T02:26:02;9.50;;;5.80;;
33287;SDS011;19657;50.452;30.372;2024-02-23T02:28:48;14.20;;;6.70;;
33287;SDS011;19657;50.452;30.372;2024-02-23T02:31:34;12.30;;;6.50;;
33287;SDS011;19657;50.452;30.372;2024-02-23T02:34:22;12.30;;;6.40;;
33287;SDS011;19657;50.452;30.372;2024-02-23T02:37:08;12.00;;;6.70;;
33287;SDS011;19657;50.452;30.372;2024-02-23T02:39:53;12.30;;;6.70;;
33287;SDS011;19657;50.452;30.372;2024-02-23T02:42:38;12.20;;;6.50;;
33287;SDS011;19657;50.452;30.372;2024-02-23T02:45:24;15.50;;;6.80;;
33287;SDS011;19657;50.452;30.372;2024-02-23T02:48:10;11.40;;;6.30;;
33287;SDS011;19657;50.452;30.372;2024-02-23T02:50:55;11.70;;;6.70;;
33287;SDS011;19657;50.452;30.372;2024-02-23T02:53:41;12.30;;;7.10;;
33287;SDS011;19657;50.452;30.372;2024-02-23T02:56:27;13.80;;;7.20;;
33287;SDS011;19657;50.452;30.372;2024-02-23T02:59:12;11.20;;;6.70;;
33287;SDS011;19657;50.452;30.372;2024-02-23T03:01:58;11.00;;;6.90;;
33287;SDS011;19657;50.452;30.372;2024-02-23T03:04:47;13.40;;;7.00;;
33287;SDS011;19657;50.452;30.372;2024-02-23T03:07:34;12.50;;;7.30;;
33287;SDS011;19657;50.452;30.372;2024-02-23T03:10:20;12.90;;;7.60;;
33287;SDS011;19657;50.452;30.372;2024-02-23T03:13:06;13.70;;;7.20;;
33287;SDS011;19657;50.452;30.372;2024-02-23T03:15:52;10.80;;;6.70;;
33287;SDS011;19657;50.452;30.372;2024-02-23T03:18:37;14.30;;;8.00;;
33287;SDS011;19657;50.452;30.372;2024-02-23T03:21:23;12.60;;;7.40;;
33287;SDS011;19657;50.452;30.372;2024-02-23T03:24:08;12.50;;;7.70;;
33287;SDS011;19657;50.452;30.372;2024-02-23T03:26:54;12.90;;;7.30;;
33287;SDS011;19657;50.452;30.372;2024-02-23T03:29:41;13.60;;;7.50;;
33287;SDS011;19657;50.452;30.372;2024-02-23T03:32:27;14.80;;;7.10;;
33287;SDS011;19657;50.452;30.372;2024-02-23T03:35:13;14.50;;;7.30;;
33287;SDS011;19657;50.452;30.372;2024-02-23T03:37:58;12.90;;;7.40;;
33287;SDS011;19657;50.452;30.372;2024-02-23T03:40:44;14.20;;;7.80;;
33287;SDS011;19657;50.452;30.372;2024-02-23T03:43:30;16.40;;;7.10;;
33287;SDS011;19657;50.452;30.372;2024-02-23T03:46:19;13.50;;;7.00;;
33287;SDS011;19657;50.452;30.372;2024-02-23T03:49:05;14.70;;;8.30;;
33287;SDS011;19657;50.452;30.372;2024-02-23T03:51:51;16.60;;;8.80;;
33287;SDS011;19657;50.452;30.372;2024-02-23T03:54:37;13.30;;;7.40;;
33287;SDS011;19657;50.452;30.372;2024-02-23T03:57:22;14.50;;;8.10;;
33287;SDS011;19657;50.452;30.372;2024-02-23T04:00:08;15.20;;;8.10;;
33287;SDS011;19657;50.452;30.372;2024-02-23T04:03:00;16.60;;;8.50;;
33287;SDS011;19657;50.452;30.372;2024-02-23T04:05:45;16.10;;;8.50;;
33287;SDS011;19657;50.452;30.372;2024-02-23T04:08:31;13.30;;;8.20;;
33287;SDS011;19657;50.452;30.372;2024-02-23T04:11:16;16.50;;;8.50;;
33287;SDS011;19657;50.452;30.372;2024-02-23T04:14:02;13.30;;;7.60;;
33287;SDS011;19657;50.452;30.372;2024-02-23T04:16:50;14.40;;;8.50;;
33287;SDS011;19657;50.452;30.372;2024-02-23T04:19:35;12.40;;;8.00;;
33287;SDS011;19657;50.452;30.372;2024-02-23T04:22:22;13.50;;;8.00;;
33287;SDS011;19657;50.452;30.372;2024-02-23T04:25:08;15.10;;;8.40;;
33287;SDS011;19657;50.452;30.372;2024-02-23T04:27:54;12.00;;;8.10;;
33287;SDS011;19657;50.452;30.372;2024-02-23T04:30:39;13.70;;;8.20;;
33287;SDS011;19657;50.452;30.372;2024-02-23T04:33:25;15.10;;;8.40;;
33287;SDS011;19657;50.452;30.372;2024-02-23T04:36:11;12.60;;;7.10;;
33287;SDS011;19657;50.452;30.372;2024-02-23T04:38:56;12.10;;;7.20;;
33287;SDS011;19657;50.452;30.372;2024-02-23T04:41:42;13.70;;;7.80;;
33287;SDS011;19657;50.452;30.372;2024-02-23T04:44:27;14.70;;;8.50;;
33287;SDS011;19657;50.452;30.372;2024-02-23T04:47:13;14.90;;;8.00;;
33287;SDS011;19657;50.452;30.372;2024-02-23T04:49:59;12.70;;;7.60;;
33287;SDS011;19657;50.452;30.372;2024-02-23T04:52:45;17.70;;;8.30;;
33287;SDS011;19657;50.452;30.372;2024-02-23T04:55:30;13.80;;;7.90;;
33287;SDS011;19657;50.452;30.372;2024-02-23T04:58:16;17.20;;;9.80;;
33287;SDS011;19657;50.452;30.372;2024-02-23T05:01:01;15.70;;;9.50;;
33287;SDS011;19657;50.452;30.372;2024-02-23T05:03:48;13.40;;;8.50;;
33287;SDS011;19657;50.452;30.372;2024-02-23T05:06:34;15.90;;;8.70;;
33287;SDS011;19657;50.452;30.372;2024-02-23T05:09:20;14.40;;;8.90;;
33287;SDS011;19657;50.452;30.372;2024-02-23T05:12:07;15.20;;;8.60;;
33287;SDS011;19657;50.452;30.372;2024-02-23T05:14:54;13.30;;;7.80;;
33287;SDS011;19657;50.452;30.372;2024-02-23T05:17:39;11.70;;;8.00;;
33287;SDS011;19657;50.452;30.372;2024-02-23T05:20:25;12.90;;;8.40;;
33287;SDS011;19657;50.452;30.372;2024-02-23T05:23:11;18.40;;;9.30;;
33287;SDS011;19657;50.452;30.372;2024-02-23T05:25:56;15.00;;;8.80;;
33287;SDS011;19657;50.452;30.372;2024-02-23T05:28:42;14.40;;;9.10;;
33287;SDS011;19657;50.452;30.372;2024-02-23T05:31:43;14.70;;;9.10;;
33287;SDS011;19657;50.452;30.372;2024-02-23T05:34:30;14.60;;;8.00;;
33287;SDS011;19657;50.452;30.372;2024-02-23T05:37:16;13.80;;;8.60;;
33287;SDS011;19657;50.452;30.372;2024-02-23T05:40:03;13.20;;;8.20;;
33287;SDS011;19657;50.452;30.372;2024-02-23T05:42:52;13.10;;;7.70;;
33287;SDS011;19657;50.452;30.372;2024-02-23T05:45:38;14.10;;;7.80;;
33287;SDS011;19657;50.452;30.372;2024-02-23T05:48:24;14.10;;;8.30;;
33287;SDS011;19657;50.452;30.372;2024-02-23T05:51:10;13.80;;;7.60;;
33287;SDS011;19657;50.452;30.372;2024-02-23T05:53:55;14.20;;;7.60;;
33287;SDS011;19657;50.452;30.372;2024-02-23T05:56:41;15.70;;;9.30;;
33287;SDS011;19657;50.452;30.372;2024-02-23T05:59:27;18.10;;;8.60;;
33287;SDS011;19657;50.452;30.372;2024-02-23T06:02:13;13.40;;;9.20;;
33287;SDS011;19657;50.452;30.372;2024-02-23T06:04:59;12.90;;;8.80;;
33287;SDS011;19657;50.452;30.372;2024-02-23T06:07:45;14.90;;;8.90;;
33287;SDS011;19657;50.452;30.372;2024-02-23T06:10:31;14.90;;;8.50;;
33287;SDS011;19657;50.452;30.372;2024-02-23T06:13:16;14.70;;;8.40;;
33287;SDS011;19657;50.452;30.372;2024-02-23T06:16:03;11.90;;;8.00;;
33287;SDS011;19657;50.452;30.372;2024-02-23T06:18:49;12.40;;;8.70;;
33287;SDS011;19657;50.452;30.372;2024-02-23T06:21:36;16.00;;;9.90;;
33287;SDS011;19657;50.452;30.372;2024-02-23T06:24:22;14.10;;;9.10;;
33287;SDS011;19657;50.452;30.372;2024-02-23T06:27:08;13.90;;;8.90;;
33287;SDS011;19657;50.452;30.372;2024-02-23T06:29:54;15.60;;;9.30;;
33287;SDS011;19657;50.452;30.372;2024-02-23T06:32:41;15.30;;;9.90;;
33287;SDS011;19657;50.452;30.372;2024-02-23T06:35:28;17.50;;;10.70;;
33287;SDS011;19657;50.452;30.372;2024-02-23T06:38:13;14.60;;;9.20;;
33287;SDS011;19657;50.452;30.372;2024-02-23T06:40:59;20.50;;;10.00;;
33287;SDS011;19657;50.452;30.372;2024-02-23T06:43:45;15.90;;;10.30;;
33287;SDS011;19657;50.452;30.372;2024-02-23T06:46:31;14.30;;;9.70;;
33287;SDS011;19657;50.452;30.372;2024-02-23T06:49:17;15.90;;;10.70;;
33287;SDS011;19657;50.452;30.372;2024-02-23T06:52:03;16.90;;;10.30;;
33287;SDS011;19657;50.452;30.372;2024-02-23T06:54:48;17.10;;;11.30;;
33287;SDS011;19657;50.452;30.372;2024-02-23T06:57:34;17.90;;;10.80;;
33287;SDS011;19657;50.452;30.372;2024-02-23T07:00:20;17.50;;;11.10;;
33287;SDS011;19657;50.452;30.372;2024-02-23T07:03:09;18.20;;;11.00;;
33287;SDS011;19657;50.452;30.372;2024-02-23T07:05:55;17.00;;;9.80;;
33287;SDS011;19657;50.452;30.372;2024-02-23T07:08:41;15.70;;;10.60;;
33287;SDS011;19657;50.452;30.372;2024-02-23T07:11:27;19.50;;;10.90;;
33287;SDS011;19657;50.452;30.372;2024-02-23T07:14:13;17.70;;;10.90;;
33287;SDS011;19657;50.452;30.372;2024-02-23T07:17:02;18.00;;;9.90;;
33287;SDS011;19657;50.452;30.372;2024-02-23T07:19:48;18.00;;;11.20;;
33287;SDS011;19657;50.452;30.372;2024-02-23T07:22:36;19.20;;;11.60;;
33287;SDS011;19657;50.452;30.372;2024-02-23T07:25:22;18.30;;;11.40;;
33287;SDS011;19657;50.452;30.372;2024-02-23T07:28:08;18.40;;;11.60;;
33287;SDS011;19657;50.452;30.372;2024-02-23T07:30:54;20.40;;;11.10;;
33287;SDS011;19657;50.452;30.372;2024-02-23T07:33:40;18.60;;;11.50;;
33287;SDS011;19657;50.452;30.372;2024-02-23T07:36:26;17.20;;;11.00;;
33287;SDS011;19657;50.452;30.372;2024-02-23T07:39:12;16.90;;;10.90;;
33287;SDS011;19657;50.452;30.372;2024-02-23T07:41:58;15.70;;;10.90;;
33287;SDS011;19657;50.452;30.372;2024-02-23T07:44:44;16.20;;;10.80;;
33287;SDS011;19657;50.452;30.372;2024-02-23T07:47:30;17.80;;;12.40;;
33287;SDS011;19657;50.452;30.372;2024-02-23T07:50:18;18.90;;;11.30;;
33287;SDS011;19657;50.452;30.372;2024-02-23T07:53:05;20.20;;;11.60;;
33287;SDS011;19657;50.452;30.372;2024-02-23T07:55:50;16.30;;;11.00;;
33287;SDS011;19657;50.452;30.372;2024-02-23T07:58:36;16.60;;;10.40;;
33287;SDS011;19657;50.452;30.372;2024-02-23T08:01:22;17.20;;;11.70;;
33287;SDS011;19657;50.452;30.372;2024-02-23T08:04:08;18.10;;;10.80;;
33287;SDS011;19657;50.452;30.372;2024-02-23T08:06:54;18.40;;;11.40;;
33287;SDS011;19657;50.452;30.372;2024-02-23T08:09:39;17.10;;;11.50;;
33287;SDS011;19657;50.452;30.372;2024-02-23T08:12:26;18.80;;;11.20;;
33287;SDS011;19657;50.452;30.372;2024-02-23T08:15:12;17.70;;;11.60;;
33287;SDS011;19657;50.452;30.372;2024-02-23T08:17:58;17.00;;;10.60;;
33287;SDS011;19657;50.452;30.372;2024-02-23T08:20:44;19.30;;;12.80;;
33287;SDS011;19657;50.452;30.372;2024-02-23T08:23:30;20.60;;;10.70;;
33287;SDS011;19657;50.452;30.372;2024-02-23T08:26:16;19.40;;;11.20;;
33287;SDS011;19657;50.452;30.372;2024-02-23T08:29:02;16.70;;;11.40;;
33287;SDS011;19657;50.452;30.372;2024-02-23T08:31:48;16.50;;;10.90;;
33287;SDS011;19657;50.452;30.372;2024-02-23T08:34:34;15.50;;;10.30;;
33287;SDS011;19657;50.452;30.372;2024-02-23T08:37:21;18.40;;;11.10;;
33287;SDS011;19657;50.452;30.372;2024-02-23T08:40:07;16.50;;;10.80;;
33287;SDS011;19657;50.452;30.372;2024-02-23T08:42:53;18.30;;;11.20;;
33287;SDS011;19657;50.452;30.372;2024-02-23T08:45:39;15.90;;;10.70;;
33287;SDS011;19657;50.452;30.372;2024-02-23T08:48:25;17.50;;;11.40;;
33287;SDS011;19657;50.452;30.372;2024-02-23T08:51:11;23.10;;;11.40;;
33287;SDS011;19657;50.452;30.372;2024-02-23T08:53:57;19.70;;;11.90;;
33287;SDS011;19657;50.452;30.372;2024-02-23T08:56:48;17.70;;;10.30;;
33287;SDS011;19657;50.452;30.372;2024-02-23T08:59:34;20.30;;;11.80;;
33287;SDS011;19657;50.452;30.372;2024-02-23T09:02:20;20.40;;;11.70;;
33287;SDS011;19657;50.452;30.372;2024-02-23T09:05:06;20.30;;;11.70;;
33287;SDS011;19657;50.452;30.372;2024-02-23T09:07:53;19.30;;;12.20;;
33287;SDS011;19657;50.452;30.372;2024-02-23T09:10:39;18.90;;;10.40;;
33287;SDS011;19657;50.452;30.372;2024-02-23T09:13:25;18.60;;;11.40;;
33287;SDS011;19657;50.452;30.372;2024-02-23T09:16:13;19.00;;;11.20;;
33287;SDS011;19657;50.452;30.372;2024-02-23T09:18:59;21.00;;;12.80;;
33287;SDS011;19657;50.452;30.372;2024-02-23T09:21:45;19.50;;;11.70;;
33287;SDS011;19657;50.452;30.372;2024-02-23T09:24:32;24.40;;;12.70;;
33287;SDS011;19657;50.452;30.372;2024-02-23T09:27:20;20.70;;;12.60;;
33287;SDS011;19657;50.452;30.372;2024-02-23T09:30:07;21.50;;;13.80;;
33287;SDS011;19657;50.452;30.372;2024-02-23T09:32:53;20.20;;;13.00;;
33287;SDS011;19657;50.452;30.372;2024-02-23T09:35:40;21.50;;;12.10;;
33287;SDS011;19657;50.452;30.372;2024-02-23T09:38:26;22.10;;;13.20;;
33287;SDS011;19657;50.452;30.372;2024-02-23T09:41:20;22.50;;;13.00;;
33287;SDS011;19657;50.452;30.372;2024-02-23T09:44:07;20.90;;;11.80;;
33287;SDS011;19657;50.452;30.372;2024-02-23T09:46:55;22.30;;;13.40;;
33287;SDS011;19657;50.452;30.372;2024-02-23T09:49:41;24.20;;;13.50;;
33287;SDS011;19657;50.452;30.372;2024-02-23T09:52:27;23.70;;;13.60;;
33287;SDS011;19657;50.452;30.372;2024-02-23T09:55:14;22.60;;;12.60;;
33287;SDS011;19657;50.452;30.372;2024-02-23T09:58:00;20.10;;;12.50;;
33287;SDS011;19657;50.452;30.372;2024-02-23T10:00:46;18.90;;;12.10;;
33287;SDS011;19657;50.452;30.372;2024-02-23T10:03:32;19.80;;;12.70;;
33287;SDS011;19657;50.452;30.372;2024-02-23T10:06:18;20.90;;;12.90;;
33287;SDS011;19657;50.452;30.372;2024-02-23T10:09:04;23.00;;;13.40;;
33287;SDS011;19657;50.452;30.372;2024-02-23T10:11:53;21.40;;;11.80;;
33287;SDS011;19657;50.452;30.372;2024-02-23T10:14:41;22.40;;;13.80;;
33287;SDS011;19657;50.452;30.372;2024-02-23T10:17:28;23.90;;;13.90;;
33287;SDS011;19657;50.452;30.372;2024-02-23T10:20:16;22.90;;;12.40;;
33287;SDS011;19657;50.452;30.372;2024-02-23T10:23:03;21.90;;;13.50;;
33287;SDS011;19657;50.452;30.372;2024-02-23T10:25:49;23.70;;;14.40;;
33287;SDS011;19657;50.452;30.372;2024-02-23T10:28:36;20.50;;;13.20;;
33287;SDS011;19657;50.452;30.372;2024-02-23T10:31:24;22.90;;;13.90;;
33287;SDS011;19657;50.452;30.372;2024-02-23T10:34:10;22.70;;;13.70;;
33287;SDS011;19657;50.452;30.372;2024-02-23T10:37:00;24.20;;;14.60;;
33287;SDS011;19657;50.452;30.372;2024-02-23T10:39:49;23.60;;;14.70;;
33287;SDS011;19657;50.452;30.372;2024-02-23T10:42:37;22.60;;;14.00;;
33287;SDS011;19657;50.452;30.372;2024-02-23T10:45:24;21.90;;;12.80;;
33287;SDS011;19657;50.452;30.372;2024-02-23T10:48:10;26.50;;;14.90;;
33287;SDS011;19657;50.452;30.372;2024-02-23T10:50:57;22.40;;;14.00;;
33287;SDS011;19657;50.452;30.372;2024-02-23T10:53:44;25.90;;;14.50;;
33287;SDS011;19657;50.452;30.372;2024-02-23T10:56:32;22.30;;;14.20;;
33287;SDS011;19657;50.452;30.372;2024-02-23T10:59:18;21.70;;;13.30;;
33287;SDS011;19657;50.452;30.372;2024-02-23T11:02:05;22.20;;;13.30;;
33287;SDS011;19657;50.452;30.372;2024-02-23T11:04:52;22.20;;;14.50;;
33287;SDS011;19657;50.452;30.372;2024-02-23T11:07:41;23.40;;;14.60;;
33287;SDS011;19657;50.452;30.372;2024-02-23T11:10:28;23.60;;;15.20;;
33287;SDS011;19657;50.452;30.372;2024-02-23T11:13:13;23.10;;;13.80;;
33287;SDS011;19657;50.452;30.372;2024-02-23T11:16:02;25.20;;;14.80;;
33287;SDS011;19657;50.452;30.372;2024-02-23T11:18:49;27.60;;;15.70;;
33287;SDS011;19657;50.452;30.372;2024-02-23T11:21:35;23.50;;;14.60;;
33287;SDS011;19657;50.452;30.372;2024-02-23T11:24:28;24.30;;;15.30;;
33287;SDS011;19657;50.452;30.372;2024-02-23T11:27:14;25.60;;;15.70;;
33287;SDS011;19657;50.452;30.372;2024-02-23T11:30:07;25.50;;;16.00;;
33287;SDS011;19657;50.452;30.372;2024-02-23T11:32:58;25.20;;;14.80;;
33287;SDS011;19657;50.452;30.372;2024-02-23T11:35:46;27.40;;;17.10;;
33287;SDS011;19657;50.452;30.372;2024-02-23T11:38:35;22.80;;;14.40;;
33287;SDS011;19657;50.452;30.372;2024-02-23T11:41:23;25.70;;;15.00;;
33287;SDS011;19657;50.452;30.372;2024-02-23T11:44:10;25.40;;;15.80;;
33287;SDS011;19657;50.452;30.372;2024-02-23T11:46:58;22.50;;;14.00;;
33287;SDS011;19657;50.452;30.372;2024-02-23T11:49:45;23.50;;;14.30;;
33287;SDS011;19657;50.452;30.372;2024-02-23T11:52:31;27.10;;;15.30;;
33287;SDS011;19657;50.452;30.372;2024-02-23T11:55:21;26.00;;;15.00;;
33287;SDS011;19657;50.452;30.372;2024-02-23T11:58:12;29.70;;;15.40;;
33287;SDS011;19657;50.452;30.372;2024-02-23T12:01:04;28.20;;;16.10;;
33287;SDS011;19657;50.452;30.372;2024-02-23T12:03:50;26.60;;;15.00;;
33287;SDS011;19657;50.452;30.372;2024-02-23T12:06:36;29.30;;;14.90;;
33287;SDS011;19657;50.452;30.372;2024-02-23T12:09:24;32.50;;;16.00;;
33287;SDS011;19657;50.452;30.372;2024-02-23T12:12:10;26.00;;;15.80;;
33287;SDS011;19657;50.452;30.372;2024-02-23T12:14:56;25.60;;;14.10;;
33287;SDS011;19657;50.452;30.372;2024-02-23T12:17:48;27.60;;;15.10;;
33287;SDS011;19657;50.452;30.372;2024-02-23T12:20:35;26.60;;;15.50;;
33287;SDS011;19657;50.452;30.372;2024-02-23T12:23:21;25.90;;;14.60;;
33287;SDS011;19657;50.452;30.372;2024-02-23T12:26:07;25.20;;;15.00;;
33287;SDS011;19657;50.452;30.372;2024-02-23T12:28:59;27.50;;;15.40;;
33287;SDS011;19657;50.452;30.372;2024-02-23T12:31:46;24.30;;;14.20;;
33287;SDS011;19657;50.452;30.372;2024-02-23T12:34:32;26.90;;;15.70;;
33287;SDS011;19657;50.452;30.372;2024-02-23T12:37:20;27.40;;;16.40;;
33287;SDS011;19657;50.452;30.372;2024-02-23T12:40:22;27.40;;;15.80;;
33287;SDS011;19657;50.452;30.372;2024-02-23T12:43:08;28.60;;;16.30;;
33287;SDS011;19657;50.452;30.372;2024-02-23T12:45:55;23.40;;;14.60;;
33287;SDS011;19657;50.452;30.372;2024-02-23T12:48:42;28.10;;;16.20;;
33287;SDS011;19657;50.452;30.372;2024-02-23T12:51:37;27.60;;;17.00;;
33287;SDS011;19657;50.452;30.372;2024-02-23T12:54:23;29.80;;;17.40;;
33287;SDS011;19657;50.452;30.372;2024-02-23T12:57:08;34.40;;;16.30;;
33287;SDS011;19657;50.452;30.372;2024-02-23T12:59:54;26.60;;;16.90;;
33287;SDS011;19657;50.452;30.372;2024-02-23T13:02:40;26.70;;;15.50;;
33287;SDS011;19657;50.452;30.372;2024-02-23T13:05:26;29.10;;;16.70;;
33287;SDS011;19657;50.452;30.372;2024-02-23T13:08:14;28.00;;;16.90;;
33287;SDS011;19657;50.452;30.372;2024-02-23T13:11:00;25.20;;;15.60;;
33287;SDS011;19657;50.452;30.372;2024-02-23T13:13:46;30.80;;;15.60;;
33287;SDS011;19657;50.452;30.372;2024-02-23T13:16:33;26.50;;;16.80;;
33287;SDS011;19657;50.452;30.372;2024-02-23T13:19:19;30.20;;;17.50;;
33287;SDS011;19657;50.452;30.372;2024-02-23T13:22:05;27.50;;;17.40;;
33287;SDS011;19657;50.452;30.372;2024-02-23T13:24:51;27.70;;;16.00;;
33287;SDS011;19657;50.452;30.372;2024-02-23T13:27:37;25.70;;;16.30;;
33287;SDS011;19657;50.452;30.372;2024-02-23T13:30:23;26.50;;;16.60;;
33287;SDS011;19657;50.452;30.372;2024-02-23T13:33:10;25.60;;;16.60;;
33287;SDS011;19657;50.452;30.372;2024-02-23T13:35:56;28.90;;;16.90;;
33287;SDS011;19657;50.452;30.372;2024-02-23T13:38:43;29.10;;;17.40;;
33287;SDS011;19657;50.452;30.372;2024-02-23T13:41:29;27.50;;;16.50;;
33287;SDS011;19657;50.452;30.372;2024-02-23T13:44:15;32.40;;;17.60;;
33287;SDS011;19657;50.452;30.372;2024-02-23T13:47:00;30.10;;;17.20;;
33287;SDS011;19657;50.452;30.372;2024-02-23T13:49:46;28.20;;;18.30;;
33287;SDS011;19657;50.452;30.372;2024-02-23T13:52:32;28.80;;;17.00;;
33287;SDS011;19657;50.452;30.372;2024-02-23T13:55:18;27.80;;;17.70;;
33287;SDS011;19657;50.452;30.372;2024-02-23T13:58:08;39.70;;;17.20;;
33287;SDS011;19657;50.452;30.372;2024-02-23T14:00:54;29.20;;;17.40;;
33287;SDS011;19657;50.452;30.372;2024-02-23T14:03:40;27.60;;;18.00;;
33287;SDS011;19657;50.452;30.372;2024-02-23T14:06:26;30.90;;;18.40;;
33287;SDS011;19657;50.452;30.372;2024-02-23T14:09:12;28.00;;;18.00;;
33287;SDS011;19657;50.452;30.372;2024-02-23T14:11:58;28.30;;;18.70;;
33287;SDS011;19657;50.452;30.372;2024-02-23T14:14:43;32.10;;;18.50;;
33287;SDS011;19657;50.452;30.372;2024-02-23T14:17:29;31.00;;;19.00;;
33287;SDS011;19657;50.452;30.372;2024-02-23T14:20:15;30.80;;;17.90;;
33287;SDS011;19657;50.452;30.372;2024-02-23T14:23:01;32.80;;;19.80;;
33287;SDS011;19657;50.452;30.372;2024-02-23T14:25:47;37.30;;;22.00;;
33287;SDS011;19657;50.452;30.372;2024-02-23T14:28:33;34.40;;;20.20;;
33287;SDS011;19657;50.452;30.372;2024-02-23T14:31:18;32.40;;;20.50;;
33287;SDS011;19657;50.452;30.372;2024-02-23T14:34:04;35.00;;;20.40;;
33287;SDS011;19657;50.452;30.372;2024-02-23T14:36:49;33.10;;;20.70;;
33287;SDS011;19657;50.452;30.372;2024-02-23T14:39:36;36.10;;;20.90;;
33287;SDS011;19657;50.452;30.372;2024-02-23T14:42:21;36.40;;;21.40;;
33287;SDS011;19657;50.452;30.372;2024-02-23T14:45:07;40.10;;;21.20;;
33287;SDS011;19657;50.452;30.372;2024-02-23T14:47:54;34.40;;;22.00;;
33287;SDS011;19657;50.452;30.372;2024-02-23T14:50:40;32.20;;;21.40;;
33287;SDS011;19657;50.452;30.372;2024-02-23T14:53:26;33.30;;;21.90;;
33287;SDS011;19657;50.452;30.372;2024-02-23T14:56:14;32.10;;;20.60;;
33287;SDS011;19657;50.452;30.372;2024-02-23T14:59:00;35.10;;;22.20;;
33287;SDS011;19657;50.452;30.372;2024-02-23T15:01:51;32.20;;;20.10;;
33287;SDS011;19657;50.452;30.372;2024-02-23T15:04:37;35.90;;;23.20;;
33287;SDS011;19657;50.452;30.372;2024-02-23T15:07:23;35.60;;;22.00;;
33287;SDS011;19657;50.452;30.372;2024-02-23T15:10:09;35.20;;;23.20;;
33287;SDS011;19657;50.452;30.372;2024-02-23T15:12:54;40.00;;;24.10;;
33287;SDS011;19657;50.452;30.372;2024-02-23T15:15:40;36.10;;;23.00;;
33287;SDS011;19657;50.452;30.372;2024-02-23T15:18:27;32.60;;;20.80;;
33287;SDS011;19657;50.452;30.372;2024-02-23T15:21:13;38.60;;;21.90;;
33287;SDS011;19657;50.452;30.372;2024-02-23T15:24:01;37.30;;;23.80;;
33287;SDS011;19657;50.452;30.372;2024-02-23T15:26:47;38.70;;;24.00;;
33287;SDS011;19657;50.452;30.372;2024-02-23T15:29:32;36.50;;;22.40;;
33287;SDS011;19657;50.452;30.372;2024-02-23T15:32:18;40.00;;;23.70;;
33287;SDS011;19657;50.452;30.372;2024-02-23T15:35:05;40.60;;;24.40;;
33287;SDS011;19657;50.452;30.372;2024-02-23T15:37:51;37.20;;;23.80;;
33287;SDS011;19657;50.452;30.372;2024-02-23T15:40:37;39.40;;;24.40;;
33287;SDS011;19657;50.452;30.372;2024-02-23T15:43:23;34.40;;;22.10;;
33287;SDS011;19657;50.452;30.372;2024-02-23T15:46:11;38.30;;;23.70;;
33287;SDS011;19657;50.452;30.372;2024-02-23T15:48:57;37.50;;;24.50;;
33287;SDS011;19657;50.452;30.372;2024-02-23T15:51:43;38.50;;;23.00;;
33287;SDS011;19657;50.452;30.372;2024-02-23T15:54:41;35.40;;;23.30;;
33287;SDS011;19657;50.452;30.372;2024-02-23T15:57:29;43.00;;;26.10;;
33287;SDS011;19657;50.452;30.372;2024-02-23T16:00:18;41.40;;;27.10;;
33287;SDS011;19657;50.452;30.372;2024-02-23T16:03:04;37.60;;;24.40;;
33287;SDS011;19657;50.452;30.372;2024-02-23T16:05:50;38.40;;;24.00;;